Time;durP1;ratioP1;P1;durP2;ratioP2;P2;SDS_P1;SDS_P2;PMS_P1;PMS_P2;Temp;Humidity;BMP_temperature;BMP_pressure;BME280_temperature;BME280_humidity;BME280_pressure;Samples;Min_cycle;Max_cycle;Signal;HPM_P1;HPM_P2
2022/12/25 00:06:10;;;;;;;16.83;9.80;;;7.90;99.90;;;;;;6212867;22;20195;-90
2022/12/25 00:08:42;;;;;;;16.42;9.63;;;7.90;99.90;;;;;;6240710;23;20214;-90
2022/12/25 00:11:12;;;;;;;15.65;8.95;;;7.90;99.90;;;;;;6238634;23;20382;-89
2022/12/25 00:13:40;;;;;;;12.70;8.63;;;7.90;99.90;;;;;;6239700;23;20187;-91
2022/12/25 00:54:52;;;;;;;12.43;9.25;;;7.70;99.90;;;;;;6163047;23;20258;-91
2022/12/25 00:57:19;;;;;;;12.85;8.68;;;7.60;99.90;;;;;;6232357;23;20172;-91
2022/12/25 00:59:46;;;;;;;17.05;10.73;;;7.50;99.90;;;;;;6231486;23;20187;-92
2022/12/25 01:02:22;;;;;;;12.73;8.50;;;7.50;99.90;;;;;;6232700;23;20171;-92
2022/12/25 01:04:54;;;;;;;19.35;11.60;;;7.50;99.90;;;;;;6233833;23;20175;-93
2022/12/25 01:07:23;;;;;;;10.95;8.00;;;7.40;99.90;;;;;;6192662;22;20207;-89
2022/12/25 04:40:59;;;;;;;13.68;8.65;;;5.30;99.90;;;;;;6217321;22;20209;-92
2022/12/25 04:43:26;;;;;;;21.35;8.93;;;5.20;99.90;;;;;;6238499;23;20215;-92
2022/12/25 04:56:34;;;;;;;17.25;10.00;;;5.10;99.90;;;;;;6153941;22;20171;-90
2022/12/25 05:09:52;;;;;;;20.38;11.57;;;5.30;99.90;;;;;;6190562;22;20183;-90
2022/12/25 05:12:19;;;;;;;22.65;14.10;;;5.30;99.90;;;;;;6236337;23;20170;-89
2022/12/25 05:28:17;;;;;;;32.00;14.88;;;5.80;99.90;;;;;;6217156;22;20199;-92
2022/12/25 05:30:44;;;;;;;40.25;15.38;;;6.00;99.90;;;;;;6235418;23;20199;-90
2022/12/25 05:33:11;;;;;;;25.02;12.48;;;6.00;99.90;;;;;;6236336;23;20382;-91
2022/12/25 06:26:56;;;;;;;17.10;12.43;;;5.40;99.90;;;;;;6246071;22;20268;-87
2022/12/25 06:29:23;;;;;;;19.63;11.65;;;5.30;99.90;;;;;;6228636;22;20190;-89
2022/12/25 06:56:07;;;;;;;26.30;13.82;;;4.80;99.90;;;;;;6179764;22;20190;-89
2022/12/25 06:58:35;;;;;;;20.10;14.40;;;4.80;99.90;;;;;;6236303;23;20167;-92
2022/12/25 07:06:26;;;;;;;26.65;14.75;;;4.60;99.90;;;;;;6231815;22;20185;-89
2022/12/25 07:08:53;;;;;;;26.40;15.70;;;4.70;99.90;;;;;;6235794;23;20178;-90
2022/12/25 07:11:21;;;;;;;22.70;14.10;;;4.80;99.90;;;;;;6235586;23;20152;-88
2022/12/25 07:21:52;;;;;;;26.50;16.27;;;5.00;99.90;;;;;;6170833;23;20191;-89
2022/12/25 07:24:21;;;;;;;35.47;16.88;;;5.00;99.90;;;;;;6155514;22;20207;-89
2022/12/25 07:26:49;;;;;;;59.72;27.42;;;5.00;99.90;;;;;;6204747;23;20155;-89
2022/12/25 07:29:18;;;;;;;45.13;22.20;;;5.00;99.90;;;;;;6205686;22;20202;-89
2022/12/25 07:31:46;;;;;;;39.80;21.85;;;5.20;99.90;;;;;;6233837;23;20182;-89
2022/12/25 07:36:54;;;;;;;35.10;19.33;;;5.20;99.90;;;;;;6229798;22;20225;-90
2022/12/25 07:50:09;;;;;;;26.35;18.00;;;5.40;99.90;;;;;;6198307;22;20207;-89
2022/12/25 07:55:16;;;;;;;27.98;16.00;;;5.70;99.90;;;;;;6178028;22;20213;-90
2022/12/25 07:57:45;;;;;;;35.22;16.77;;;5.80;99.90;;;;;;6166102;22;20207;-91
2022/12/25 08:16:24;;;;;;;25.50;15.00;;;5.80;99.90;;;;;;6149777;22;20402;-89
2022/12/25 08:18:52;;;;;;;22.05;14.48;;;5.60;99.90;;;;;;6209243;22;20196;-91
2022/12/25 10:01:33;;;;;;;23.15;13.95;;;7.50;99.90;;;;;;6215005;22;20218;-88
2022/12/25 10:04:07;;;;;;;38.90;16.73;;;7.30;99.90;;;;;;6229842;23;20168;-89
2022/12/25 10:06:52;;;;;;;56.40;21.00;;;7.30;99.90;;;;;;6219848;22;20211;-89
2022/12/25 10:09:27;;;;;;;28.92;13.85;;;7.40;99.90;;;;;;6232096;23;20265;-90
2022/12/25 10:12:45;;;;;;;27.50;18.58;;;7.60;99.90;;;;;;6226370;23;20202;-88
2022/12/25 10:16:00;;;;;;;20.50;11.30;;;7.50;99.90;;;;;;6132926;23;20241;-89
2022/12/25 10:18:56;;;;;;;40.70;16.92;;;7.80;99.90;;;;;;6047581;23;20187;-88
2022/12/25 10:21:23;;;;;;;19.85;10.55;;;7.80;99.90;;;;;;6229990;23;20180;-90
2022/12/25 10:24:21;;;;;;;16.83;11.23;;;7.60;99.90;;;;;;6206911;22;20199;-88
2022/12/25 10:26:50;;;;;;;15.20;10.25;;;7.60;99.90;;;;;;6232401;23;20291;-89
2022/12/25 10:32:00;;;;;;;18.48;9.68;;;7.60;99.90;;;;;;6224255;22;20214;-88
2022/12/25 10:34:28;;;;;;;11.88;8.88;;;7.50;99.90;;;;;;6228362;22;20271;-89
2022/12/25 10:36:55;;;;;;;20.58;9.95;;;7.60;99.90;;;;;;6232535;23;20275;-88
2022/12/25 10:39:25;;;;;;;15.82;8.15;;;7.80;99.90;;;;;;6230779;23;20176;-88
2022/12/25 10:42:02;;;;;;;15.45;7.78;;;7.90;99.90;;;;;;6232444;23;20172;-87
2022/12/25 10:44:32;;;;;;;17.48;10.10;;;8.00;99.90;;;;;;6229419;23;20176;-87
2022/12/25 10:55:12;;;;;;;25.25;11.73;;;8.30;99.90;;;;;;6222029;22;20204;-89
2022/12/25 11:35:16;;;;;;;20.45;10.45;;;9.10;99.90;;;;;;6169878;23;20171;-86
2022/12/25 11:37:47;;;;;;;19.25;7.75;;;8.90;99.90;;;;;;6169395;23;20189;-88
2022/12/25 11:40:19;;;;;;;12.77;7.30;;;9.00;99.90;;;;;;6143587;23;20370;-85
2022/12/25 11:42:54;;;;;;;20.27;11.63;;;8.90;99.90;;;;;;6168276;23;20227;-87
2022/12/25 11:45:31;;;;;;;13.68;9.23;;;9.00;99.90;;;;;;6171364;23;20159;-87
2022/12/25 11:48:05;;;;;;;18.60;8.57;;;9.00;99.90;;;;;;6172682;23;20239;-87
2022/12/25 11:53:28;;;;;;;17.45;9.25;;;9.10;99.90;;;;;;6173502;23;20178;-87
2022/12/25 11:56:06;;;;;;;17.23;8.10;;;9.20;99.90;;;;;;6172159;23;20155;-88
2022/12/25 11:58:41;;;;;;;21.58;7.53;;;9.50;99.90;;;;;;6143353;23;20182;-86
2022/12/25 12:01:20;;;;;;;16.05;6.90;;;9.60;99.90;;;;;;6143740;23;20172;-88
2022/12/25 12:06:50;;;;;;;11.15;6.75;;;9.50;99.90;;;;;;6142968;23;20169;-88
2022/12/25 12:09:44;;;;;;;11.68;6.85;;;9.50;99.90;;;;;;6244689;22;20224;-87
2022/12/25 12:12:46;;;;;;;16.67;6.85;;;9.40;99.90;;;;;;6237453;23;20173;-88
2022/12/25 12:15:28;;;;;;;14.82;7.78;;;9.20;99.90;;;;;;6186980;23;20190;-90
2022/12/25 12:20:55;;;;;;;10.43;6.38;;;9.10;99.90;;;;;;6202365;23;20545;-88
2022/12/25 12:23:23;;;;;;;15.23;6.25;;;9.20;99.90;;;;;;6199678;23;20255;-88
2022/12/25 12:25:51;;;;;;;46.38;15.30;;;9.20;99.90;;;;;;6200124;23;20441;-90
2022/12/25 12:50:00;;;;;;;13.80;6.45;;;9.60;99.90;;;;;;6153146;22;20221;-89
2022/12/25 12:55:13;;;;;;;39.08;16.15;;;9.60;99.90;;;;;;6215201;22;20273;-89
2022/12/25 12:57:41;;;;;;;8.35;6.55;;;9.70;99.90;;;;;;6236995;23;20174;-90
2022/12/25 13:00:15;;;;;;;20.38;9.75;;;10.00;99.90;;;;;;6231453;22;20205;-90
2022/12/25 13:08:45;;;;;;;11.25;6.30;;;9.80;99.90;;;;;;6225237;22;20209;-86
2022/12/25 13:11:12;;;;;;;16.92;8.27;;;9.90;99.90;;;;;;6206926;22;20218;-92
2022/12/25 13:13:42;;;;;;;14.95;8.30;;;9.90;99.90;;;;;;6218783;22;20490;-88
2022/12/25 13:16:34;;;;;;;13.20;7.35;;;9.90;99.90;;;;;;6236425;23;20170;-88
2022/12/25 13:19:10;;;;;;;20.67;9.20;;;9.90;99.90;;;;;;6217026;22;20240;-88
2022/12/25 13:21:38;;;;;;;13.20;7.20;;;9.90;99.90;;;;;;6224904;23;20405;-90
2022/12/25 13:29:25;;;;;;;16.52;8.35;;;9.60;99.90;;;;;;6175995;23;20225;-89
2022/12/25 13:31:52;;;;;;;16.45;8.90;;;9.40;99.90;;;;;;6199149;23;20210;-89
2022/12/25 13:34:27;;;;;;;11.93;8.48;;;9.40;99.90;;;;;;6228671;23;20498;-87
2022/12/25 13:36:55;;;;;;;15.13;9.13;;;9.20;99.90;;;;;;6221031;23;20192;-87
2022/12/25 13:39:23;;;;;;;25.13;12.88;;;9.30;99.90;;;;;;6220789;23;20198;-87
2022/12/25 13:42:05;;;;;;;22.20;10.20;;;9.20;99.90;;;;;;6220699;23;20186;-88
2022/12/25 13:44:41;;;;;;;14.52;8.90;;;9.10;99.90;;;;;;6217853;22;20524;-88
2022/12/25 13:47:28;;;;;;;14.48;9.85;;;9.10;99.90;;;;;;6224868;23;20245;-89
2022/12/25 13:49:57;;;;;;;16.35;10.82;;;9.10;99.90;;;;;;6221959;23;20194;-87
2022/12/25 13:52:36;;;;;;;15.48;8.70;;;9.20;99.90;;;;;;6226991;23;20482;-88
2022/12/25 13:55:10;;;;;;;15.40;9.45;;;9.10;99.90;;;;;;6224736;23;20182;-88
2022/12/25 13:57:39;;;;;;;36.17;15.75;;;9.00;99.90;;;;;;6220043;23;20197;-86
2022/12/25 14:00:35;;;;;;;32.25;15.50;;;9.00;99.90;;;;;;6221512;23;20211;-87
2022/12/25 14:03:06;;;;;;;22.83;10.60;;;9.00;99.90;;;;;;6220869;23;20182;-86
2022/12/25 14:05:36;;;;;;;27.95;14.25;;;8.90;99.90;;;;;;6222763;23;20208;-87
2022/12/25 14:08:16;;;;;;;20.05;13.18;;;8.70;99.90;;;;;;6225632;23;20202;-86
2022/12/25 14:10:48;;;;;;;15.15;10.18;;;8.50;99.90;;;;;;6221510;23;20303;-87
2022/12/25 14:13:17;;;;;;;28.63;12.65;;;8.60;99.90;;;;;;6223551;23;20187;-87
2022/12/25 14:15:46;;;;;;;17.45;8.85;;;8.50;99.90;;;;;;6221403;23;20186;-87
2022/12/25 14:18:17;;;;;;;17.08;9.57;;;8.50;99.90;;;;;;6221870;23;20194;-87
2022/12/25 14:21:07;;;;;;;21.25;10.57;;;8.40;99.90;;;;;;6221320;23;20178;-90
2022/12/25 14:23:46;;;;;;;24.50;10.93;;;8.40;99.90;;;;;;6227398;23;20157;-89
2022/12/25 14:26:24;;;;;;;19.15;12.68;;;8.40;99.90;;;;;;6234660;23;20212;-89
2022/12/25 14:28:59;;;;;;;17.50;10.45;;;8.40;99.90;;;;;;6229213;23;20254;-89
2022/12/25 14:31:28;;;;;;;14.80;10.95;;;8.40;99.90;;;;;;6231216;23;20223;-86
2022/12/25 14:41:54;;;;;;;15.18;10.25;;;8.50;99.90;;;;;;6232204;22;20207;-89
2022/12/25 14:44:38;;;;;;;16.38;12.30;;;8.40;99.90;;;;;;6205861;23;20189;-91
2022/12/25 14:49:42;;;;;;;15.63;9.52;;;8.50;99.90;;;;;;6195834;22;20265;-88
2022/12/25 15:03:31;;;;;;;16.60;9.60;;;8.40;99.90;;;;;;6198096;23;20192;-90
2022/12/25 15:06:00;;;;;;;21.52;11.43;;;8.40;99.90;;;;;;6170858;23;20174;-88
2022/12/25 15:08:29;;;;;;;22.20;12.90;;;8.40;99.90;;;;;;6168327;23;20266;-89
2022/12/25 15:10:57;;;;;;;14.00;9.60;;;8.30;99.90;;;;;;6166440;23;20190;-88
2022/12/25 15:13:34;;;;;;;14.15;11.10;;;8.40;99.90;;;;;;6194074;23;20169;-86
2022/12/25 15:16:18;;;;;;;13.50;10.23;;;8.30;99.90;;;;;;6168102;23;20200;-87
2022/12/25 15:18:54;;;;;;;17.00;12.05;;;8.30;99.90;;;;;;6176808;23;20162;-86
2022/12/25 15:21:31;;;;;;;16.95;10.27;;;8.30;99.90;;;;;;6204156;23;20216;-87
2022/12/25 15:24:01;;;;;;;21.85;11.60;;;8.30;99.90;;;;;;6197618;23;20333;-88
2022/12/25 15:26:30;;;;;;;18.90;11.80;;;8.10;99.90;;;;;;6193364;23;20209;-86
2022/12/25 15:29:00;;;;;;;21.27;11.60;;;8.10;99.90;;;;;;6192382;23;20192;-86
2022/12/25 15:31:29;;;;;;;20.38;14.25;;;8.00;99.90;;;;;;6193043;23;20374;-87
2022/12/25 15:34:15;;;;;;;25.02;12.35;;;8.00;99.90;;;;;;6167000;23;20264;-87
2022/12/25 15:36:42;;;;;;;21.40;12.07;;;8.00;99.90;;;;;;6167848;23;20452;-87
2022/12/25 15:39:11;;;;;;;22.17;14.50;;;8.00;99.90;;;;;;6192385;23;20583;-89
2022/12/25 15:44:27;;;;;;;28.23;13.43;;;7.90;99.90;;;;;;6193205;23;20232;-86
2022/12/25 15:46:56;;;;;;;21.88;13.90;;;7.90;99.90;;;;;;6193003;23;20759;-86
2022/12/25 15:49:25;;;;;;;26.67;12.27;;;7.90;99.90;;;;;;6191808;23;20209;-90
2022/12/25 15:51:52;;;;;;;23.92;14.07;;;8.00;99.90;;;;;;6193374;23;20184;-89
2022/12/25 15:54:20;;;;;;;25.40;14.80;;;7.90;99.90;;;;;;6194967;23;20211;-89
2022/12/25 15:56:51;;;;;;;30.88;17.13;;;8.10;99.90;;;;;;6195268;23;20176;-89
2022/12/25 15:59:21;;;;;;;23.15;15.77;;;8.10;99.90;;;;;;6194601;23;20180;-88
2022/12/25 16:01:57;;;;;;;23.20;12.48;;;8.10;99.90;;;;;;6184380;23;20224;-89
2022/12/25 16:04:26;;;;;;;21.00;13.80;;;8.30;99.90;;;;;;6139258;23;20185;-88
2022/12/25 16:06:58;;;;;;;25.52;13.32;;;8.30;99.90;;;;;;6166150;23;20172;-91
2022/12/25 16:09:26;;;;;;;17.27;12.55;;;8.20;99.90;;;;;;6140412;23;20256;-89
2022/12/25 16:11:53;;;;;;;30.55;13.65;;;8.20;99.90;;;;;;6163985;23;20203;-89
2022/12/25 16:14:22;;;;;;;20.80;12.98;;;8.20;99.90;;;;;;6164783;23;20189;-89
2022/12/25 16:17:00;;;;;;;14.50;11.52;;;8.10;99.90;;;;;;6165951;23;20169;-85
2022/12/25 16:19:27;;;;;;;25.17;14.10;;;8.00;99.90;;;;;;6138316;23;20648;-88
2022/12/25 16:21:54;;;;;;;23.20;13.82;;;8.00;99.90;;;;;;6165083;23;20189;-88
2022/12/25 16:24:24;;;;;;;19.58;15.10;;;7.90;99.90;;;;;;6165348;23;20193;-87
2022/12/25 16:26:57;;;;;;;32.67;16.02;;;7.90;99.90;;;;;;6165835;23;20185;-87
2022/12/25 16:29:25;;;;;;;27.75;16.10;;;7.80;99.90;;;;;;6165324;23;20207;-85
2022/12/25 16:31:52;;;;;;;20.27;13.23;;;7.80;99.90;;;;;;6168414;23;20179;-88
2022/12/25 16:34:21;;;;;;;24.23;13.70;;;7.80;99.90;;;;;;6168700;23;20429;-87
2022/12/25 16:36:48;;;;;;;29.20;16.25;;;7.80;99.90;;;;;;6171736;23;20170;-87
2022/12/25 16:39:15;;;;;;;24.27;14.48;;;7.70;99.90;;;;;;6172087;23;20186;-86
2022/12/25 16:41:45;;;;;;;23.90;13.65;;;7.70;99.90;;;;;;6178388;23;20201;-88
2022/12/25 16:44:15;;;;;;;20.98;14.57;;;7.70;99.90;;;;;;6146632;23;20208;-84
2022/12/25 16:46:42;;;;;;;23.45;13.80;;;7.70;99.90;;;;;;6165719;23;20598;-85
2022/12/25 16:49:13;;;;;;;26.42;15.20;;;7.70;99.90;;;;;;6165596;23;20196;-86
2022/12/25 16:51:40;;;;;;;26.92;14.85;;;7.60;99.90;;;;;;6140695;23;20221;-85
2022/12/25 16:54:08;;;;;;;29.15;12.82;;;7.60;99.90;;;;;;6166984;23;20506;-88
2022/12/25 16:56:40;;;;;;;24.67;15.00;;;7.70;99.90;;;;;;6167465;23;20166;-88
2022/12/25 16:59:07;;;;;;;26.33;15.45;;;7.70;99.90;;;;;;6139424;23;20177;-86
2022/12/25 17:01:36;;;;;;;25.27;13.15;;;7.50;99.90;;;;;;6164725;23;20204;-87
2022/12/25 17:04:04;;;;;;;22.63;14.95;;;7.60;99.90;;;;;;6165292;23;20171;-86
2022/12/25 17:06:34;;;;;;;26.45;15.52;;;7.60;99.90;;;;;;6165962;23;20182;-87
2022/12/25 17:09:03;;;;;;;22.67;14.13;;;7.60;99.90;;;;;;6159511;23;20209;-91
2022/12/25 17:11:32;;;;;;;27.00;16.13;;;7.70;99.90;;;;;;6148631;23;20192;-89
2022/12/25 17:14:02;;;;;;;24.25;14.18;;;7.60;99.90;;;;;;6120640;23;20176;-89
2022/12/25 17:16:40;;;;;;;35.58;17.13;;;7.60;99.90;;;;;;6173339;23;20173;-89
2022/12/25 17:19:16;;;;;;;32.03;18.38;;;7.50;99.90;;;;;;6171988;23;20181;-87
2022/12/25 17:21:44;;;;;;;23.98;15.68;;;7.70;99.90;;;;;;6168181;23;20245;-87
2022/12/25 17:24:12;;;;;;;30.02;16.42;;;7.60;99.90;;;;;;6166717;23;20174;-87
2022/12/25 17:26:42;;;;;;;29.67;14.50;;;7.50;99.90;;;;;;6166253;23;20209;-88
2022/12/25 17:29:10;;;;;;;27.20;17.17;;;7.50;99.90;;;;;;6169356;23;20193;-89
2022/12/25 17:31:51;;;;;;;36.60;17.40;;;7.60;99.90;;;;;;6167055;23;20228;-90
2022/12/25 17:34:18;;;;;;;33.90;17.25;;;7.60;99.90;;;;;;6139007;23;20350;-88
2022/12/25 17:36:46;;;;;;;23.05;15.93;;;7.40;99.90;;;;;;6163542;23;20178;-88
2022/12/25 17:39:15;;;;;;;28.50;16.75;;;7.40;99.90;;;;;;6162845;23;20358;-89
2022/12/25 17:41:44;;;;;;;27.35;15.68;;;7.30;99.90;;;;;;6138118;23;20188;-88
2022/12/25 17:44:14;;;;;;;36.00;15.63;;;7.40;99.90;;;;;;6164983;23;20185;-89
2022/12/25 17:46:42;;;;;;;26.77;17.27;;;7.40;99.90;;;;;;6143887;23;20205;-90
2022/12/25 17:49:19;;;;;;;21.40;15.20;;;7.40;99.90;;;;;;6167995;23;20201;-92
2022/12/25 17:51:49;;;;;;;25.85;16.92;;;7.40;99.90;;;;;;6169308;23;20252;-89
2022/12/25 17:54:16;;;;;;;35.88;17.80;;;7.40;99.90;;;;;;6144527;23;20252;-89
2022/12/25 17:56:48;;;;;;;27.52;16.77;;;7.40;99.90;;;;;;6148847;23;20232;-91
2022/12/25 18:02:00;;;;;;;33.80;18.98;;;7.30;99.90;;;;;;6176588;23;20411;-89
2022/12/25 18:04:31;;;;;;;28.88;15.60;;;7.30;99.90;;;;;;6157178;23;20179;-91
2022/12/25 18:09:36;;;;;;;31.65;17.60;;;7.30;99.90;;;;;;6248983;22;20185;-90
2022/12/25 18:12:06;;;;;;;27.42;18.60;;;7.40;99.90;;;;;;6226190;22;20227;-88
2022/12/25 18:22:40;;;;;;;25.90;16.73;;;7.20;99.90;;;;;;6176856;22;21425;-89
2022/12/25 18:27:51;;;;;;;36.58;19.77;;;7.20;99.90;;;;;;6172067;22;20177;-89
2022/12/25 18:32:54;;;;;;;34.33;20.25;;;7.20;99.90;;;;;;6228562;22;20238;-90
2022/12/25 18:35:27;;;;;;;32.35;19.85;;;7.20;99.90;;;;;;6176464;22;20297;-90
2022/12/25 18:37:56;;;;;;;32.38;18.17;;;7.10;99.90;;;;;;6220194;22;20203;-89
2022/12/25 18:40:25;;;;;;;31.67;18.13;;;7.10;99.90;;;;;;6165185;22;20536;-90
2022/12/25 18:53:43;;;;;;;28.40;16.83;;;7.30;99.90;;;;;;6181747;22;20209;-91
2022/12/25 19:01:30;;;;;;;32.00;17.45;;;7.20;99.90;;;;;;6177640;22;20207;-91
2022/12/25 19:03:57;;;;;;;25.88;15.55;;;7.20;99.90;;;;;;6198257;23;20189;-88
2022/12/25 19:17:17;;;;;;;34.47;17.15;;;7.30;99.90;;;;;;6204856;22;20195;-89
2022/12/25 19:19:44;;;;;;;31.80;17.23;;;7.20;99.90;;;;;;6180454;22;20207;-89
2022/12/25 19:22:15;;;;;;;27.17;16.23;;;7.10;99.90;;;;;;6239581;23;20165;-89
2022/12/25 19:24:42;;;;;;;30.92;17.73;;;7.30;99.90;;;;;;6240545;23;20172;-90
2022/12/25 19:27:12;;;;;;;29.48;19.70;;;7.30;99.90;;;;;;6239798;23;20179;-90
2022/12/25 19:29:41;;;;;;;27.63;18.17;;;7.20;99.90;;;;;;6235803;23;20203;-88
2022/12/25 19:32:11;;;;;;;32.60;19.00;;;7.20;99.90;;;;;;6233102;23;20187;-90
2022/12/25 19:34:41;;;;;;;42.60;18.23;;;7.20;99.90;;;;;;6234672;23;20186;-91
2022/12/25 19:37:08;;;;;;;33.20;18.08;;;7.20;99.90;;;;;;6178196;22;20304;-89
2022/12/25 19:39:37;;;;;;;29.80;18.42;;;7.20;99.90;;;;;;6219635;22;20195;-90
2022/12/25 19:42:04;;;;;;;31.63;18.90;;;7.30;99.90;;;;;;6245844;22;20194;-88
2022/12/25 19:44:31;;;;;;;31.60;18.65;;;7.20;99.90;;;;;;6241129;22;20169;-90
2022/12/25 19:47:00;;;;;;;34.10;18.75;;;7.20;99.90;;;;;;6259296;22;20222;-91
2022/12/25 19:49:28;;;;;;;33.92;18.98;;;7.30;99.90;;;;;;6233402;23;20206;-91
2022/12/25 19:51:56;;;;;;;29.20;19.15;;;7.20;99.90;;;;;;6233691;23;20241;-90
2022/12/25 20:15:44;;;;;;;32.33;17.83;;;6.90;99.90;;;;;;6216861;22;20209;-90
2022/12/25 20:18:11;;;;;;;26.33;16.48;;;6.90;99.90;;;;;;6231892;23;20180;-88
2022/12/25 20:20:40;;;;;;;29.63;17.55;;;6.90;99.90;;;;;;6231370;23;20206;-89
2022/12/25 20:23:08;;;;;;;35.47;19.65;;;7.00;99.90;;;;;;6217742;22;20192;-88
2022/12/25 20:25:41;;;;;;;27.58;19.55;;;6.90;99.90;;;;;;6203252;23;20171;-90
2022/12/25 20:28:09;;;;;;;35.10;20.45;;;7.00;99.90;;;;;;6227314;23;20167;-90
2022/12/25 20:30:40;;;;;;;31.45;16.30;;;7.00;99.90;;;;;;6225922;23;20195;-89
2022/12/25 20:35:50;;;;;;;27.65;18.20;;;6.90;99.90;;;;;;6216383;22;20199;-86
2022/12/25 20:38:17;;;;;;;26.42;16.50;;;7.10;99.90;;;;;;6222093;23;20183;-89
2022/12/25 20:40:45;;;;;;;35.65;19.27;;;7.00;99.90;;;;;;6223373;23;20179;-86
2022/12/25 20:43:33;;;;;;;58.00;28.23;;;7.00;99.90;;;;;;6224725;23;20352;-88
2022/12/25 20:54:12;;;;;;;30.27;18.05;;;7.00;99.90;;;;;;6177016;22;20274;-89
2022/12/25 21:39:22;;;;;;;22.40;13.55;;;6.90;99.90;;;;;;6193907;22;20197;-90
2022/12/25 21:41:52;;;;;;;38.42;17.50;;;6.90;99.90;;;;;;6149880;22;21052;-88
2022/12/25 21:47:02;;;;;;;26.08;14.35;;;6.90;99.90;;;;;;6226516;22;20251;-88
2022/12/25 21:52:17;;;;;;;20.20;12.13;;;7.00;99.90;;;;;;6170850;22;20263;-87
2022/12/25 22:00:08;;;;;;;20.40;12.65;;;7.20;99.90;;;;;;6174596;22;21631;-88
2022/12/25 22:10:35;;;;;;;21.48;11.20;;;7.40;99.90;;;;;;6181030;22;20211;-89
2022/12/25 22:21:18;;;;;;;23.40;13.48;;;7.40;99.90;;;;;;6213332;22;20228;-89
2022/12/25 22:23:47;;;;;;;20.90;12.05;;;7.30;99.90;;;;;;6240478;23;20161;-86
